CheckWX is a tool to help pilots better visualize weather data.  It is not intended as a substitute for an official pre-flight weather briefing.

11:14:23 UTC

KMTJ TAF
Montrose Regional Airport
Montrose, Colorado, USA
KMTJ 170538Z 1706/1806 12010KT P6SM FEW150 SCT250 FM171000 16009KT P6SM FEW150 FEW250 FM171700 25015G24KT P6SM FEW150 SCT250 FM180200 16011KT P6SM FEW150 FEW250

Aug-17@
06:00 UTC

Aug-17 @ 06:00 UTC

Aug-17@
10:00 UTC

Aug-17 @ 10:00 UTC

KMTJ 170538Z 1706/1806 12010KT P6SM FEW150 SCT250

Expired

Wind
  • 120° at 10 KTS
Cloud Levels
  • Few at 15,000' AGL
  • Scattered at 25,000' AGL

Aug-17@
10:00 UTC

Aug-17 @ 10:00 UTC

Aug-17@
17:00 UTC

Aug-17 @ 17:00 UTC

FM171000 16009KT P6SM FEW150 FEW250

From

From Standard forecast or significant change

Wind
  • 160° at 9 KTS
Cloud Levels
  • Few at 15,000' AGL
  • Few at 25,000' AGL

Aug-17@
17:00 UTC

Aug-17 @ 17:00 UTC

Aug-18@
02:00 UTC

Aug-18 @ 02:00 UTC

FM171700 25015G24KT P6SM FEW150 SCT250

From

From Standard forecast or significant change

Wind
  • 250° at 15 KTS
  • {Gusting to 24 KTS
Cloud Levels
  • Few at 15,000' AGL
  • Scattered at 25,000' AGL

Aug-18@
02:00 UTC

Aug-18 @ 02:00 UTC

Aug-18@
06:00 UTC

Aug-18 @ 06:00 UTC

FM180200 16011KT P6SM FEW150 FEW250

From

From Standard forecast or significant change

Wind
  • 160° at 11 KTS
Cloud Levels
  • Few at 15,000' AGL
  • Few at 25,000' AGL